KVOK/VOK METAR and TAF weather

Enter ICAO airport designator
Station Type Date Time Source
KVOK METAR 2021/09/24 06:56 UTC NOAA

KVOK 240656Z AUTO 00000KT 10SM CLR 06/05 A2993 RMK AO2 SLP140 T00550045


Station Type Date Time Source
KVOK Decoded METAR 2021/09/24 06:56 UTC NOAA

Volk / Camp Douglas, WI, United States (KVOK) 43-56N 090-16W
Sep 24, 2021 - 02:56 AM EDT / 2021.09.24 0656 UTC
Wind: Calm:0
Visibility: 10 mile(s):0
Sky conditions: clear
Temperature: 41.9 F (5.5 C)
Dew Point: 40.1 F (4.5 C)
Relative Humidity: 93%
Pressure (altimeter): 29.93 in. Hg (1013 hPa)
ob: KVOK 240656Z AUTO 00000KT 10SM CLR 06/05 A2993 RMK AO2 SLP140 T00550045
cycle: 7

Station Type Date Time Source
KVOK TAF 2021/09/24 05:24 UTC NOAA

TAF
AMD KVOK 240510Z 2405/2507 28006KT 9999 BCFG SKC QNH2991INS
BECMG 2413/2414 19006KT 9999 NSW BKN200 QNH2979INS
BECMG 2420/2421 27012KT 8000 -SHRA SCT040 OVC050 QNH2981INS
BECMG 2422/2423 31012KT 8000 -SHRA BKN020 OVC030 QNH2985INS
BECMG 2502/2503 31009KT 9999 BCFG OVC008 QNH2993INS
BECMG 2504/2505 30006KT 9999 BCFG FEW016 FEW170 QNH2993INS TX24/2419Z TN05/2411Z LAST NO
AMDS AFT 2405 NEXT 2409

Example: see airport list